createdAt,value
2019-02-28T00:01:46.495Z,29.07
2019-02-28T00:04:15.066Z,30.50
2019-02-28T00:06:44.071Z,36.03
2019-02-28T00:09:12.717Z,30.77
2019-02-28T00:11:40.562Z,33.18
2019-02-28T00:14:08.425Z,29.95
2019-02-28T00:16:36.421Z,33.70
2019-02-28T00:19:04.688Z,35.50
2019-02-28T00:21:32.494Z,33.50
2019-02-28T00:24:00.417Z,38.45
2019-02-28T00:26:28.271Z,34.55
2019-02-28T00:28:56.981Z,34.58
2019-02-28T00:31:25.681Z,32.45
2019-02-28T00:33:53.574Z,36.63
2019-02-28T00:36:21.398Z,33.42
2019-02-28T00:38:49.301Z,41.15
2019-02-28T00:41:17.153Z,34.58
2019-02-28T00:43:45.042Z,35.05
2019-02-28T00:46:12.932Z,38.05
2019-02-28T00:48:40.810Z,38.65
2019-02-28T00:51:08.649Z,38.78
2019-02-28T00:53:37.382Z,35.50
2019-02-28T00:56:06.553Z,37.48
2019-02-28T00:58:34.430Z,37.35
2019-02-28T01:01:02.330Z,43.85
2019-02-28T01:03:31.783Z,43.48
2019-02-28T01:05:59.765Z,38.08
2019-02-28T01:08:27.605Z,38.92
2019-02-28T01:10:55.496Z,40.85
2019-02-28T01:13:27.328Z,40.63
2019-02-28T01:15:53.125Z,42.30
2019-02-28T01:18:20.958Z,45.73
2019-02-28T01:20:50.737Z,40.40
2019-02-28T01:23:18.349Z,43.95
2019-02-28T01:25:46.218Z,40.67
2019-02-28T01:28:14.153Z,43.10
2019-02-28T01:30:41.997Z,46.60
2019-02-28T01:33:09.757Z,42.62
2019-02-28T01:35:40.907Z,43.85
2019-02-28T01:38:07.170Z,38.73
2019-02-28T01:40:35.221Z,41.80
2019-02-28T01:43:04.555Z,46.65
2019-02-28T01:45:32.357Z,36.95
2019-02-28T01:48:00.241Z,45.15
2019-02-28T01:50:29.674Z,41.23
2019-02-28T01:52:57.709Z,45.52
2019-02-28T01:55:25.534Z,48.92
2019-02-28T01:57:53.382Z,42.67
2019-02-28T02:00:23.769Z,43.08
2019-02-28T02:02:50.763Z,43.50
2019-02-28T02:05:18.591Z,44.90
2019-02-28T02:07:46.411Z,41.98
2019-02-28T02:10:21.287Z,40.92
2019-02-28T02:12:48.917Z,48.50
2019-02-28T02:15:17.130Z,41.40
2019-02-28T02:17:45.793Z,45.10
2019-02-28T02:20:13.629Z,43.55
2019-02-28T02:22:44.424Z,49.30
2019-02-28T02:25:11.449Z,48.50
2019-02-28T02:27:39.301Z,42.78
2019-02-28T02:30:14.010Z,43.10
2019-02-28T02:32:38.947Z,46.10
2019-02-28T02:35:08.412Z,45.78
2019-02-28T02:37:36.423Z,48.28
2019-02-28T02:40:04.455Z,40.48
2019-02-28T02:42:32.264Z,48.15
2019-02-28T02:45:05.093Z,46.65
2019-02-28T02:47:32.366Z,42.40
2019-02-28T02:49:59.266Z,43.10
2019-02-28T02:52:30.378Z,48.83
2019-02-28T02:54:56.693Z,42.95
2019-02-28T02:57:24.527Z,48.80
2019-02-28T02:59:52.365Z,49.10
2019-02-28T03:02:20.189Z,43.52
2019-02-28T03:04:48.053Z,52.90
2019-02-28T03:07:23.061Z,46.08
2019-02-28T03:09:45.484Z,49.15
2019-02-28T03:12:13.604Z,48.50
2019-02-28T03:14:41.591Z,49.90
2019-02-28T03:17:11.834Z,50.75
2019-02-28T03:19:38.985Z,44.38
2019-02-28T03:22:06.835Z,47.48
2019-02-28T03:24:34.727Z,46.28
2019-02-28T03:27:02.575Z,51.28
2019-02-28T03:29:30.450Z,53.52
2019-02-28T03:31:59.502Z,50.10
2019-02-28T03:34:27.925Z,48.02
2019-02-28T03:36:57.449Z,49.13
2019-02-28T03:39:25.782Z,52.60
2019-02-28T03:41:54.255Z,53.05
2019-02-28T03:44:22.139Z,51.30
2019-02-28T03:46:50.020Z,50.90
2019-02-28T03:49:18.046Z,49.03
2019-02-28T03:51:45.975Z,51.68
2019-02-28T03:54:13.835Z,53.52
2019-02-28T03:56:41.711Z,53.58
2019-02-28T03:59:09.606Z,51.45
2019-02-28T04:01:45.076Z,51.98
2019-02-28T04:04:12.210Z,55.38
2019-02-28T04:06:40.838Z,49.00
2019-02-28T04:09:08.542Z,48.58
2019-02-28T04:11:36.042Z,49.75
2019-02-28T04:14:03.928Z,47.10
2019-02-28T04:16:31.815Z,52.13
2019-02-28T04:18:59.702Z,52.15
2019-02-28T04:21:27.597Z,49.80
2019-02-28T04:23:57.991Z,53.85
2019-02-28T04:26:29.713Z,55.03
2019-02-28T04:29:04.516Z,54.90
2019-02-28T04:31:32.914Z,52.17
2019-02-28T04:34:02.853Z,51.28
2019-02-28T04:36:35.846Z,56.30
2019-02-28T04:39:07.296Z,55.00
2019-02-28T04:41:37.523Z,54.60
2019-02-28T04:44:05.462Z,64.42
2019-02-28T04:46:34.558Z,57.58
2019-02-28T04:49:04.415Z,57.75
2019-02-28T04:51:32.321Z,60.78
2019-02-28T04:54:03.127Z,54.13
2019-02-28T04:56:33.304Z,54.00
2019-02-28T04:59:01.308Z,64.35
2019-02-28T05:01:29.758Z,60.55
2019-02-28T05:03:59.139Z,61.50
2019-02-28T05:06:29.865Z,55.15
2019-02-28T05:08:57.840Z,57.70
2019-02-28T05:11:30.453Z,56.90
2019-02-28T05:13:57.052Z,56.58
2019-02-28T05:16:25.101Z,56.73
2019-02-28T05:19:01.506Z,57.88
2019-02-28T05:21:28.094Z,54.18
2019-02-28T05:23:56.079Z,54.90
2019-02-28T05:26:26.243Z,62.98
2019-02-28T05:28:57.071Z,65.35
2019-02-28T05:31:27.958Z,54.23
2019-02-28T05:33:56.200Z,58.60
2019-02-28T05:36:25.540Z,66.30
2019-02-28T05:38:56.567Z,60.70
2019-02-28T05:41:26.807Z,55.73
2019-02-28T05:43:56.408Z,66.80
2019-02-28T05:46:24.592Z,61.00
2019-02-28T05:48:52.767Z,63.80
2019-02-28T05:51:20.885Z,62.13
2019-02-28T05:53:50.688Z,60.40
2019-02-28T05:56:19.289Z,60.00
2019-02-28T05:58:53.390Z,51.95
2019-02-28T06:01:27.845Z,61.00
2019-02-28T06:03:56.852Z,55.40
2019-02-28T06:06:26.685Z,60.00
2019-02-28T06:08:56.826Z,61.73
2019-02-28T06:11:25.916Z,56.20
2019-02-28T06:13:56.826Z,63.17
2019-02-28T06:16:24.852Z,60.83
2019-02-28T06:18:53.962Z,57.85
2019-02-28T06:21:23.409Z,70.62
2019-02-28T06:23:52.077Z,59.77
2019-02-28T06:26:26.127Z,64.12
2019-02-28T06:28:54.041Z,60.15
2019-02-28T06:31:21.946Z,56.77
2019-02-28T06:33:49.834Z,58.60
2019-02-28T06:36:17.783Z,64.03
2019-02-28T06:38:47.367Z,66.80
2019-02-28T06:41:15.236Z,67.87
2019-02-28T06:43:44.308Z,61.65
2019-02-28T06:46:12.526Z,64.90
2019-02-28T06:48:40.393Z,66.37
2019-02-28T06:51:08.334Z,64.45
2019-02-28T06:53:38.014Z,58.33
2019-02-28T06:56:05.829Z,64.85
2019-02-28T06:58:34.145Z,57.88
2019-02-28T07:01:01.988Z,64.80
2019-02-28T07:03:29.958Z,61.90
2019-02-28T07:06:01.190Z,69.97
2019-02-28T07:08:29.085Z,64.80
2019-02-28T07:10:57.030Z,66.22
2019-02-28T07:13:24.902Z,60.63
2019-02-28T07:15:55.543Z,68.25
2019-02-28T07:18:22.363Z,69.40
2019-02-28T07:20:50.175Z,61.40
2019-02-28T07:23:18.054Z,64.05
2019-02-28T07:25:47.353Z,65.05
2019-02-28T07:28:15.438Z,64.80
2019-02-28T07:30:43.305Z,61.92
2019-02-28T07:33:11.250Z,63.78
2019-02-28T07:35:39.107Z,67.30
2019-02-28T07:38:06.957Z,61.65
2019-02-28T07:40:35.181Z,62.50
2019-02-28T07:43:03.012Z,61.30
2019-02-28T07:45:33.082Z,66.77
2019-02-28T07:48:00.390Z,56.48
2019-02-28T07:50:28.222Z,57.27
2019-02-28T07:52:56.032Z,63.45
2019-02-28T07:55:27.214Z,56.73
2019-02-28T07:57:56.360Z,63.85
2019-02-28T08:00:23.121Z,60.38
2019-02-28T08:02:50.991Z,67.22
2019-02-28T08:05:18.947Z,57.95
2019-02-28T08:07:51.940Z,62.05
2019-02-28T08:10:17.074Z,59.60
2019-02-28T08:12:44.948Z,60.43
2019-02-28T08:15:21.171Z,58.78
2019-02-28T08:17:46.408Z,63.35
2019-02-28T08:20:14.778Z,63.63
2019-02-28T08:22:42.606Z,61.98
2019-02-28T08:25:10.946Z,63.80
2019-02-28T08:27:38.944Z,65.65
2019-02-28T08:30:08.546Z,62.75
2019-02-28T08:32:36.385Z,61.42
2019-02-28T08:35:04.308Z,57.58
2019-02-28T08:37:32.171Z,64.82
2019-02-28T08:40:00.017Z,60.38
2019-02-28T08:42:27.882Z,60.28
2019-02-28T08:44:58.941Z,62.60
2019-02-28T08:47:25.296Z,60.73
2019-02-28T08:49:53.146Z,63.80
2019-02-28T08:52:20.995Z,61.50
2019-02-28T08:54:48.826Z,64.40
2019-02-28T08:57:16.697Z,61.68
2019-02-28T08:59:44.548Z,63.33
2019-02-28T09:02:14.527Z,68.52
2019-02-28T09:04:44.959Z,60.45
2019-02-28T09:07:14.876Z,65.40
2019-02-28T09:09:41.669Z,68.25
2019-02-28T09:12:09.738Z,62.78
2019-02-28T09:14:37.584Z,66.65
2019-02-28T09:17:05.440Z,62.27
2019-02-28T09:19:36.047Z,68.40
2019-02-28T09:22:02.853Z,65.83
2019-02-28T09:24:30.723Z,68.10
2019-02-28T09:27:01.335Z,61.03
2019-02-28T09:29:28.159Z,67.03
2019-02-28T09:31:56.273Z,63.57
2019-02-28T09:34:24.230Z,62.10
2019-02-28T09:36:57.950Z,70.75
2019-02-28T09:39:25.846Z,69.00
2019-02-28T09:41:53.682Z,68.07
2019-02-28T09:44:21.538Z,68.45
2019-02-28T09:46:50.843Z,71.87
2019-02-28T09:49:19.060Z,68.30
2019-02-28T09:51:47.361Z,74.50
2019-02-28T09:54:15.364Z,66.28
2019-02-28T09:56:44.567Z,67.53
2019-02-28T09:59:12.996Z,68.78
2019-02-28T10:01:42.894Z,69.73
2019-02-28T10:04:11.007Z,70.53
2019-02-28T10:06:38.845Z,72.93
2019-02-28T10:09:08.748Z,69.73
2019-02-28T10:11:36.493Z,76.23
2019-02-28T10:14:04.375Z,70.70
2019-02-28T10:16:32.458Z,75.30
2019-02-28T10:19:00.370Z,72.27
2019-02-28T10:21:28.328Z,62.07
2019-02-28T10:23:56.844Z,66.70
2019-02-28T10:26:25.917Z,68.30
2019-02-28T10:28:53.848Z,70.47
2019-02-28T10:31:35.243Z,67.97
2019-02-28T10:33:52.405Z,71.37
2019-02-28T10:36:20.884Z,72.47
2019-02-28T10:38:49.878Z,69.50
2019-02-28T10:41:17.717Z,71.30
2019-02-28T10:43:49.947Z,67.63
2019-02-28T10:46:16.684Z,75.60
2019-02-28T10:48:50.719Z,67.40
2019-02-28T10:51:17.381Z,67.63
2019-02-28T10:53:47.570Z,67.27
2019-02-28T10:56:15.573Z,71.30
2019-02-28T10:58:43.472Z,66.20
2019-02-28T11:01:11.865Z,68.43
2019-02-28T11:03:47.804Z,71.50
2019-02-28T11:06:15.445Z,67.40
2019-02-28T11:08:44.417Z,67.03
2019-02-28T11:11:13.944Z,71.97
2019-02-28T11:13:41.941Z,72.87
2019-02-28T11:16:09.912Z,71.77
2019-02-28T11:18:41.871Z,70.03
2019-02-28T11:21:09.275Z,68.50
2019-02-28T11:23:37.703Z,72.40
2019-02-28T11:26:06.379Z,75.13
2019-02-28T11:28:35.402Z,70.90
2019-02-28T11:31:03.910Z,74.80
2019-02-28T11:33:31.879Z,74.07
2019-02-28T11:36:00.181Z,76.97
2019-02-28T11:38:30.255Z,71.27
2019-02-28T11:40:58.566Z,74.37
2019-02-28T11:43:30.079Z,77.22
2019-02-28T11:46:01.002Z,77.45
2019-02-28T11:48:30.319Z,79.05
2019-02-28T11:51:00.191Z,78.30
2019-02-28T11:53:28.123Z,75.30
2019-02-28T11:55:56.498Z,79.80
2019-02-28T11:58:26.250Z,75.42
2019-02-28T12:00:56.037Z,71.85
2019-02-28T12:03:25.305Z,78.02
2019-02-28T12:05:55.147Z,70.22
2019-02-28T12:08:23.101Z,78.42
2019-02-28T12:10:52.882Z,71.42
2019-02-28T12:13:23.552Z,76.97
2019-02-28T12:15:52.497Z,77.17
2019-02-28T12:18:23.097Z,72.90
2019-02-28T12:20:51.081Z,71.70
2019-02-28T12:23:22.965Z,75.30
2019-02-28T12:25:50.151Z,71.72
2019-02-28T12:28:18.210Z,78.87
2019-02-28T12:30:47.901Z,79.47
2019-02-28T12:33:19.091Z,74.60
2019-02-28T12:35:46.341Z,74.77
2019-02-28T12:38:14.467Z,75.32
2019-02-28T12:40:45.560Z,74.67
2019-02-28T12:43:14.467Z,78.47
2019-02-28T12:45:46.418Z,78.67
2019-02-28T12:48:16.058Z,83.12
2019-02-28T12:50:44.092Z,76.20
2019-02-28T12:53:13.361Z,74.00
2019-02-28T12:55:41.999Z,78.95
2019-02-28T12:58:11.219Z,79.12
2019-02-28T13:00:39.111Z,78.92
2019-02-28T13:03:09.048Z,83.45
2019-02-28T13:05:36.972Z,76.90
2019-02-28T13:08:05.831Z,73.78
2019-02-28T13:10:34.720Z,75.42
2019-02-28T13:13:07.159Z,75.08
2019-02-28T13:15:32.151Z,69.07
2019-02-28T13:18:00.232Z,71.35
2019-02-28T13:20:32.438Z,79.15
2019-02-28T13:22:59.496Z,64.58
2019-02-28T13:25:27.532Z,70.50
2019-02-28T13:27:55.433Z,66.57
2019-02-28T13:30:23.510Z,78.50
2019-02-28T13:32:51.470Z,62.43
2019-02-28T13:35:20.487Z,63.03
2019-02-28T13:37:48.396Z,65.15
2019-02-28T13:40:16.276Z,69.20
2019-02-28T13:42:44.165Z,64.10
2019-02-28T13:45:14.880Z,62.00
2019-02-28T13:47:46.228Z,66.65
2019-02-28T13:50:13.100Z,62.35
2019-02-28T13:52:40.942Z,63.38
2019-02-28T13:55:09.414Z,62.43
2019-02-28T13:57:37.286Z,68.52
2019-02-28T14:00:08.195Z,58.55
2019-02-28T14:02:37.037Z,56.05
2019-02-28T14:05:05.100Z,59.27
2019-02-28T14:07:33.771Z,60.55
2019-02-28T14:10:02.539Z,62.78
2019-02-28T14:12:30.495Z,59.95
2019-02-28T14:14:58.376Z,58.73
2019-02-28T14:17:26.257Z,59.25
2019-02-28T14:19:54.136Z,55.95
2019-02-28T14:22:22.009Z,62.80
2019-02-28T14:24:49.905Z,61.18
2019-02-28T14:27:17.814Z,60.70
2019-02-28T14:29:48.393Z,58.08
2019-02-28T14:32:15.320Z,59.55
2019-02-28T14:34:43.281Z,60.40
2019-02-28T14:37:11.207Z,60.00
2019-02-28T14:39:39.722Z,62.78
2019-02-28T14:42:08.947Z,59.77
2019-02-28T14:44:36.823Z,60.20
2019-02-28T14:47:04.691Z,60.05
2019-02-28T14:49:32.619Z,60.98
2019-02-28T14:52:03.509Z,68.28
2019-02-28T14:54:30.142Z,70.92
2019-02-28T14:56:58.039Z,71.90
2019-02-28T14:59:28.538Z,70.85
2019-02-28T15:01:55.482Z,72.60
2019-02-28T15:04:23.354Z,67.20
2019-02-28T15:06:51.286Z,72.62
2019-02-28T15:09:19.137Z,76.30
2019-02-28T15:11:48.210Z,73.12
2019-02-28T15:14:16.257Z,69.42
2019-02-28T15:16:44.158Z,73.90
2019-02-28T15:19:12.016Z,72.42
2019-02-28T15:21:42.737Z,74.35
2019-02-28T15:24:09.833Z,72.27
2019-02-28T15:26:37.909Z,71.77
2019-02-28T15:29:05.811Z,76.15
2019-02-28T15:31:33.710Z,79.00
2019-02-28T15:34:02.325Z,77.50
2019-02-28T15:36:31.266Z,75.87
2019-02-28T15:38:59.214Z,76.35
2019-02-28T15:41:27.202Z,73.80
2019-02-28T15:43:55.094Z,77.03
2019-02-28T15:46:23.016Z,73.57
2019-02-28T15:48:51.009Z,79.55
2019-02-28T15:51:18.940Z,83.10
2019-02-28T15:53:49.400Z,81.67
2019-02-28T15:56:19.735Z,72.08
2019-02-28T15:58:46.062Z,81.53
2019-02-28T16:01:14.151Z,77.22
2019-02-28T16:03:42.081Z,86.82
2019-02-28T16:06:09.907Z,79.95
2019-02-28T16:08:37.791Z,76.92
2019-02-28T16:11:07.181Z,77.08
2019-02-28T16:13:35.185Z,80.05
2019-02-28T16:16:03.021Z,80.20
2019-02-28T16:18:30.890Z,74.58
2019-02-28T16:20:58.758Z,74.97
2019-02-28T16:23:27.606Z,71.00
2019-02-28T16:25:56.253Z,72.37
2019-02-28T16:28:24.218Z,80.22
2019-02-28T16:30:52.046Z,80.38
2019-02-28T16:33:20.886Z,78.55
2019-02-28T16:35:50.434Z,79.62
2019-02-28T16:38:19.118Z,81.45
2019-02-28T16:40:47.011Z,80.60
2019-02-28T16:43:17.476Z,79.00
2019-02-28T16:45:46.959Z,85.35
2019-02-28T16:48:14.907Z,75.75
2019-02-28T16:50:42.853Z,80.20
2019-02-28T16:53:14.746Z,82.00
2019-02-28T16:55:40.339Z,80.35
2019-02-28T16:58:08.186Z,78.75
2019-02-28T17:00:36.072Z,81.02
2019-02-28T17:03:07.415Z,74.77
2019-02-28T17:05:34.442Z,72.40
2019-02-28T17:08:02.306Z,68.75
2019-02-28T17:10:34.451Z,75.52
2019-02-28T17:13:17.227Z,65.97
2019-02-28T17:16:10.450Z,69.20
2019-02-28T17:18:38.327Z,61.37
2019-02-28T17:21:06.237Z,63.35
2019-02-28T17:23:36.874Z,67.67
2019-02-28T17:26:03.776Z,59.20
2019-02-28T17:28:56.814Z,54.67
2019-02-28T17:31:44.573Z,55.92
2019-02-28T17:34:17.449Z,57.43
2019-02-28T17:36:47.634Z,56.28
2019-02-28T17:39:15.877Z,55.85
2019-02-28T17:41:44.135Z,66.17
2019-02-28T17:44:25.031Z,59.40
2019-02-28T17:46:57.030Z,67.55
2019-02-28T17:49:52.232Z,62.00
2019-02-28T17:52:24.562Z,59.40
2019-02-28T17:55:14.634Z,63.63
2019-02-28T17:58:08.850Z,64.32
2019-02-28T18:01:00.882Z,65.00
2019-02-28T18:04:01.692Z,63.80
2019-02-28T18:06:57.702Z,63.17
2019-02-28T18:09:35.596Z,60.85
2019-02-28T18:12:29.111Z,63.17
2019-02-28T18:15:10.114Z,64.12
2019-02-28T18:18:17.883Z,64.20
2019-02-28T18:21:10.944Z,63.10
2019-02-28T18:24:00.225Z,61.80
2019-02-28T18:26:40.066Z,63.33
2019-02-28T18:29:13.235Z,63.73
2019-02-28T18:31:42.540Z,63.68
2019-02-28T18:34:20.552Z,58.87
2019-02-28T18:36:48.275Z,59.70
2019-02-28T18:39:16.643Z,62.00
2019-02-28T18:41:45.618Z,68.40
2019-02-28T18:44:15.390Z,63.05
2019-02-28T18:46:44.391Z,63.83
2019-02-28T18:49:14.784Z,64.47
2019-02-28T18:51:43.735Z,58.33
2019-02-28T18:54:12.749Z,61.15
2019-02-28T18:56:40.702Z,54.60
2019-02-28T18:59:08.699Z,54.35
2019-02-28T19:01:38.684Z,53.98
2019-02-28T19:04:07.176Z,49.23
2019-02-28T19:06:36.169Z,51.50
2019-02-28T19:09:10.609Z,46.77
2019-02-28T19:11:46.041Z,52.13
2019-02-28T19:14:14.066Z,45.90
2019-02-28T19:16:42.663Z,44.45
2019-02-28T19:19:13.760Z,46.53
2019-02-28T19:21:42.784Z,47.60
2019-02-28T19:24:15.688Z,44.53
2019-02-28T19:26:44.183Z,46.92
2019-02-28T19:29:14.686Z,53.63
2019-02-28T19:31:42.720Z,47.98
2019-02-28T19:34:13.522Z,41.58
2019-02-28T19:36:41.732Z,42.58
2019-02-28T19:39:10.855Z,43.00
2019-02-28T19:41:44.924Z,42.00
2019-02-28T19:44:10.959Z,43.50
2019-02-28T19:46:43.393Z,45.23
2019-02-28T19:49:11.407Z,41.60
2019-02-28T19:51:40.727Z,40.45
2019-02-28T19:54:08.693Z,36.35
2019-02-28T19:56:38.131Z,38.85
2019-02-28T19:59:08.752Z,37.70
2019-02-28T20:01:37.188Z,37.48
2019-02-28T20:04:07.364Z,44.42
2019-02-28T20:06:37.168Z,36.38
2019-02-28T20:09:08.931Z,40.12
2019-02-28T20:11:40.618Z,32.20
2019-02-28T20:14:09.529Z,34.50
2019-02-28T20:16:37.621Z,33.83
2019-02-28T20:19:05.906Z,35.38
2019-02-28T20:21:34.919Z,33.73
2019-02-28T20:24:03.265Z,33.90
2019-02-28T20:26:33.343Z,29.20
2019-02-28T20:29:01.431Z,34.65
2019-02-28T20:31:31.445Z,36.20
2019-02-28T20:34:00.001Z,32.08
2019-02-28T20:36:29.810Z,30.12
2019-02-28T20:38:57.887Z,31.27
2019-02-28T20:41:27.404Z,32.98
2019-02-28T20:44:04.372Z,32.33
2019-02-28T20:46:32.303Z,29.55
2019-02-28T20:49:14.206Z,30.88
2019-02-28T20:51:34.259Z,32.23
2019-02-28T20:54:04.873Z,31.25
2019-02-28T20:56:34.648Z,31.00
2019-02-28T20:59:03.676Z,33.92
2019-02-28T21:01:33.587Z,32.73
2019-02-28T21:04:02.430Z,31.85
2019-02-28T21:06:32.027Z,32.70
2019-02-28T21:09:00.107Z,34.73
2019-02-28T21:11:37.750Z,29.98
2019-02-28T21:14:08.253Z,34.38
2019-02-28T21:16:40.455Z,30.60
2019-02-28T21:19:09.827Z,32.65
2019-02-28T21:21:41.939Z,37.70
2019-02-28T21:24:17.957Z,28.70
2019-02-28T21:26:46.314Z,28.75
2019-02-28T21:29:18.624Z,31.93
2019-02-28T21:31:50.063Z,31.30
2019-02-28T21:34:19.051Z,32.80
2019-02-28T21:36:48.134Z,33.75
2019-02-28T21:39:17.758Z,37.60
2019-02-28T21:41:45.697Z,34.48
2019-02-28T21:44:13.978Z,32.80
2019-02-28T21:46:45.410Z,30.85
2019-02-28T21:49:13.526Z,33.55
2019-02-28T21:51:44.274Z,33.45
2019-02-28T21:54:15.051Z,37.67
2019-02-28T21:56:43.085Z,32.45
2019-02-28T21:59:13.802Z,29.98
2019-02-28T22:01:49.114Z,36.73
2019-02-28T22:04:21.101Z,32.17
2019-02-28T22:06:49.077Z,30.82
2019-02-28T22:09:19.053Z,30.48
2019-02-28T22:11:47.666Z,29.50
2019-02-28T22:14:15.587Z,31.05
2019-02-28T22:16:44.415Z,33.67
2019-02-28T22:19:13.516Z,32.95
2019-02-28T22:21:41.882Z,30.02
2019-02-28T22:24:11.406Z,30.20
2019-02-28T22:26:40.806Z,32.35
2019-02-28T22:29:09.437Z,32.83
2019-02-28T22:32:04.315Z,33.08
2019-02-28T22:35:06.165Z,32.30
2019-02-28T22:37:34.146Z,34.43
2019-02-28T22:40:05.123Z,36.85
2019-02-28T22:42:36.858Z,39.70
2019-02-28T22:45:06.734Z,36.28
2019-02-28T22:47:35.803Z,34.80
2019-02-28T22:50:04.198Z,39.48
2019-02-28T22:52:33.103Z,35.17
2019-02-28T22:55:03.168Z,37.73
2019-02-28T22:57:33.961Z,37.17
2019-02-28T23:00:02.478Z,34.38
2019-02-28T23:02:30.508Z,37.98
2019-02-28T23:05:03.870Z,37.67
2019-02-28T23:07:32.418Z,36.70
2019-02-28T23:10:01.835Z,35.17
2019-02-28T23:12:29.719Z,38.17
2019-02-28T23:14:57.697Z,35.05
2019-02-28T23:17:29.678Z,33.75
2019-02-28T23:20:00.639Z,36.28
2019-02-28T23:22:31.428Z,38.75
2019-02-28T23:24:59.960Z,35.83
2019-02-28T23:27:27.880Z,39.30
2019-02-28T23:30:06.528Z,36.70
2019-02-28T23:32:36.592Z,37.73
2019-02-28T23:35:05.756Z,44.00
2019-02-28T23:37:33.717Z,39.33
2019-02-28T23:40:01.641Z,39.80
2019-02-28T23:42:29.558Z,40.12
2019-02-28T23:44:57.505Z,39.00
2019-02-28T23:47:25.422Z,41.88
2019-02-28T23:49:54.533Z,38.85
2019-02-28T23:52:23.438Z,40.43
2019-02-28T23:54:52.102Z,40.83
2019-02-28T23:57:23.864Z,45.20
2019-02-28T23:59:53.263Z,42.27
